Time;durP1;ratioP1;P1;durP2;ratioP2;P2;SDS_P1;SDS_P2;PMS_P1;PMS_P2;Temp;Humidity;BMP_temperature;BMP_pressure;BME280_temperature;BME280_humidity;BME280_pressure;Samples;Min_cycle;Max_cycle;Signal;HPM_P1;HPM_P2
2023/01/13 00:01:21;;;;;;;2.83;1.40;;;;;;;-144.31;100.00;58022.63;5056927;28;20073;-60
2023/01/13 00:03:56;;;;;;;6.53;1.75;;;;;;;-144.31;100.00;58022.63;5054883;28;20483;-59
2023/01/13 00:06:24;;;;;;;6.80;1.50;;;;;;;-144.31;100.00;58022.63;5054700;28;20037;-60
2023/01/13 00:08:52;;;;;;;6.43;1.52;;;;;;;-144.31;100.00;58022.63;5055450;28;20037;-59
2023/01/13 00:11:20;;;;;;;2.55;1.45;;;;;;;-144.31;100.00;58022.63;5056073;28;20543;-60
2023/01/13 00:13:47;;;;;;;5.72;1.20;;;;;;;-144.31;100.00;58022.63;5054016;28;20048;-60
2023/01/13 00:16:18;;;;;;;5.00;1.48;;;;;;;-144.31;100.00;58022.63;5052011;28;20825;-59
2023/01/13 00:19:01;;;;;;;2.58;1.15;;;;;;;-144.31;100.00;58022.63;5053007;28;20135;-59
2023/01/13 00:21:35;;;;;;;1.98;1.20;;;;;;;-144.31;100.00;58022.63;5053740;28;20056;-59
2023/01/13 00:24:25;;;;;;;6.18;1.63;;;;;;;-144.31;100.00;58022.63;5054631;28;20056;-63
2023/01/13 00:27:45;;;;;;;7.30;1.63;;;;;;;-144.31;100.00;58022.63;5054255;28;20078;-60
2023/01/13 00:31:09;;;;;;;4.28;1.38;;;;;;;-144.31;100.00;58022.63;5051962;28;20187;-60
2023/01/13 00:34:33;;;;;;;2.92;1.50;;;;;;;-144.31;100.00;58022.63;5053790;28;20090;-59
2023/01/13 00:37:56;;;;;;;4.40;1.50;;;;;;;-144.31;100.00;58022.63;5054534;28;20072;-61
2023/01/13 00:41:20;;;;;;;4.47;2.00;;;;;;;-144.31;100.00;58022.63;5054133;28;20128;-60
2023/01/13 00:43:50;;;;;;;5.80;1.38;;;;;;;-144.31;100.00;58022.63;5054110;28;20048;-60
2023/01/13 00:47:03;;;;;;;1.77;1.20;;;;;;;-144.31;100.00;58022.63;5054816;28;20037;-59
2023/01/13 00:50:27;;;;;;;3.63;1.60;;;;;;;-144.31;100.00;58022.63;5054632;28;20044;-59
2023/01/13 00:53:51;;;;;;;8.50;1.48;;;;;;;-144.31;100.00;58022.63;5056030;28;20029;-60
2023/01/13 00:57:05;;;;;;;5.50;2.00;;;;;;;-144.31;100.00;58022.63;5062044;28;20067;-60
2023/01/13 01:00:21;;;;;;;4.75;1.20;;;;;;;-144.31;100.00;58022.63;5038571;28;20493;-59
2023/01/13 01:03:11;;;;;;;1.88;1.40;;;;;;;-144.31;100.00;58022.63;5051713;28;20170;-59
2023/01/13 01:05:40;;;;;;;3.33;1.20;;;;;;;-144.31;100.00;58022.63;5054682;28;20303;-60
2023/01/13 01:08:39;;;;;;;1.92;1.20;;;;;;;-144.31;100.00;58022.63;5051227;28;20371;-60
2023/01/13 01:12:03;;;;;;;2.88;1.42;;;;;;;-144.31;100.00;58022.63;5054764;28;20036;-60
2023/01/13 01:15:23;;;;;;;1.67;1.10;;;;;;;-144.31;100.00;58022.63;5052981;28;20095;-59
2023/01/13 01:18:35;;;;;;;4.20;1.38;;;;;;;-144.31;100.00;58022.63;5060266;28;20469;-59
2023/01/13 01:21:03;;;;;;;3.00;1.42;;;;;;;-144.31;100.00;58022.63;5053214;28;20157;-59
2023/01/13 01:23:34;;;;;;;3.28;1.30;;;;;;;-144.31;100.00;58022.63;5053251;28;20041;-60
2023/01/13 01:26:04;;;;;;;7.50;1.50;;;;;;;-144.31;100.00;58022.63;5054550;28;20040;-59
2023/01/13 01:29:13;;;;;;;3.00;1.13;;;;;;;-144.31;100.00;58022.63;5053826;28;20040;-59
2023/01/13 01:31:39;;;;;;;5.70;1.75;;;;;;;-144.31;100.00;58022.63;5054209;28;20043;-60
2023/01/13 01:34:04;;;;;;;3.03;1.30;;;;;;;-144.31;100.00;58022.63;5053479;28;20036;-60
2023/01/13 01:36:45;;;;;;;5.90;1.50;;;;;;;-144.31;100.00;58022.63;5054705;28;20036;-60
2023/01/13 01:39:11;;;;;;;1.60;1.10;;;;;;;-144.31;100.00;58022.63;5053684;28;20706;-60
2023/01/13 01:41:36;;;;;;;4.30;1.13;;;;;;;-144.31;100.00;58022.63;5052438;28;20048;-59
2023/01/13 01:44:41;;;;;;;4.88;1.30;;;;;;;-144.31;100.00;58022.63;5052760;28;20036;-59
2023/01/13 01:47:12;;;;;;;1.58;1.30;;;;;;;-144.31;100.00;58022.63;5053231;28;20544;-61
2023/01/13 01:49:38;;;;;;;2.15;1.30;;;;;;;-144.31;100.00;58022.63;5054129;28;20052;-61
2023/01/13 01:52:15;;;;;;;3.35;1.70;;;;;;;-144.31;100.00;58022.63;5054247;28;20036;-59
2023/01/13 01:54:59;;;;;;;1.40;1.30;;;;;;;-144.31;100.00;58022.63;5051671;28;20409;-59
2023/01/13 01:57:41;;;;;;;2.20;1.50;;;;;;;-144.31;100.00;58022.63;5052653;28;20037;-59
2023/01/13 02:00:07;;;;;;;2.67;1.35;;;;;;;-144.31;100.00;58022.63;5050860;28;20508;-59
2023/01/13 02:02:41;;;;;;;3.92;1.40;;;;;;;-144.31;100.00;58022.63;5057111;28;20032;-60
2023/01/13 02:05:13;;;;;;;1.40;1.13;;;;;;;-144.31;100.00;58022.63;5049639;28;20041;-59
2023/01/13 02:07:41;;;;;;;4.63;1.55;;;;;;;-144.31;100.00;58022.63;5054766;28;20102;-59
2023/01/13 02:10:11;;;;;;;3.58;1.38;;;;;;;-144.31;100.00;58022.63;5052531;28;20071;-59
2023/01/13 02:12:39;;;;;;;1.20;1.10;;;;;;;-144.31;100.00;58022.63;5066403;28;20044;-60
2023/01/13 02:15:13;;;;;;;4.93;1.25;;;;;;;-144.31;100.00;58022.63;5055093;28;20036;-59
2023/01/13 02:18:01;;;;;;;2.72;1.20;;;;;;;-144.31;100.00;58022.63;5053560;28;20037;-59
2023/01/13 02:21:06;;;;;;;1.75;1.08;;;;;;;-144.31;100.00;58022.63;5053990;28;20147;-62
2023/01/13 02:27:21;;;;;;;1.90;1.25;;;;;;;-144.31;100.00;58022.63;5054051;28;20080;-61
2023/01/13 02:33:13;;;;;;;3.72;1.23;;;;;;;-144.31;100.00;58022.63;5053549;28;20044;-60
2023/01/13 02:35:55;;;;;;;3.28;1.40;;;;;;;-144.31;100.00;58022.63;5056675;28;20048;-61
2023/01/13 02:38:30;;;;;;;3.00;1.10;;;;;;;-144.31;100.00;58022.63;5054644;28;20119;-59
2023/01/13 02:44:05;;;;;;;5.05;1.40;;;;;;;-144.31;100.00;58022.63;5053272;28;20029;-60
2023/01/13 02:44:05;;;;;;;3.15;1.20;;;;;;;-144.31;100.00;58022.63;5052939;28;20198;-60
2023/01/13 02:46:41;;;;;;;3.13;1.30;;;;;;;-144.31;100.00;58022.63;5052616;28;20059;-60
2023/01/13 02:49:12;;;;;;;1.80;1.20;;;;;;;-144.31;100.00;58022.63;5051872;28;20053;-60
2023/01/13 02:51:39;;;;;;;5.03;1.30;;;;;;;-144.31;100.00;58022.63;5057476;28;20041;-60
2023/01/13 02:54:19;;;;;;;1.33;1.15;;;;;;;-144.31;100.00;58022.63;5055027;28;20075;-61
2023/01/13 02:56:49;;;;;;;5.60;1.35;;;;;;;-144.31;100.00;58022.63;5054100;28;20040;-60
2023/01/13 02:59:15;;;;;;;4.30;1.48;;;;;;;-144.31;100.00;58022.63;5054048;28;20036;-60
2023/01/13 03:01:41;;;;;;;3.17;1.20;;;;;;;-144.31;100.00;58022.63;5052099;28;20040;-61
2023/01/13 03:04:34;;;;;;;3.33;1.30;;;;;;;-144.31;100.00;58022.63;5053797;28;20045;-60
2023/01/13 03:07:11;;;;;;;3.92;1.30;;;;;;;-144.31;100.00;58022.63;5050267;28;20132;-60
2023/01/13 03:09:48;;;;;;;2.80;1.20;;;;;;;-144.31;100.00;58022.63;5050474;28;20051;-60
2023/01/13 03:12:27;;;;;;;2.08;1.20;;;;;;;-144.31;100.00;58022.63;5054135;28;20033;-60
2023/01/13 03:15:03;;;;;;;3.30;1.40;;;;;;;-144.31;100.00;58022.63;5058013;28;20064;-60
2023/01/13 03:17:41;;;;;;;2.63;1.23;;;;;;;-144.31;100.00;58022.63;5053181;28;20049;-60
2023/01/13 03:20:26;;;;;;;4.03;1.30;;;;;;;-144.31;100.00;58022.63;5053165;28;20041;-60
2023/01/13 03:23:15;;;;;;;3.95;1.45;;;;;;;-144.31;100.00;58022.63;5051717;28;20036;-60
2023/01/13 03:25:52;;;;;;;3.33;1.30;;;;;;;-144.31;100.00;58022.63;5051456;28;20037;-60
2023/01/13 03:28:24;;;;;;;2.90;1.40;;;;;;;-144.31;100.00;58022.63;5050685;28;20070;-60
2023/01/13 03:30:57;;;;;;;2.65;1.45;;;;;;;-144.31;100.00;58022.63;5046619;28;20040;-60
2023/01/13 03:33:27;;;;;;;2.22;1.27;;;;;;;-144.31;100.00;58022.63;5053461;28;20044;-60
2023/01/13 03:36:00;;;;;;;3.35;1.40;;;;;;;-144.31;100.00;58022.63;5051411;28;20033;-60
2023/01/13 03:38:39;;;;;;;3.95;1.58;;;;;;;-144.31;100.00;58022.63;5054289;28;20057;-60
2023/01/13 03:41:10;;;;;;;4.53;1.23;;;;;;;-144.31;100.00;58022.63;5059801;28;20400;-59
2023/01/13 03:46:48;;;;;;;1.63;1.20;;;;;;;-144.31;100.00;58022.63;5051943;28;20450;-60
2023/01/13 03:49:19;;;;;;;3.08;1.30;;;;;;;-144.31;100.00;58022.63;5053673;28;20210;-59
2023/01/13 03:51:48;;;;;;;2.20;1.25;;;;;;;-144.31;100.00;58022.63;5054336;28;20039;-60
2023/01/13 03:54:18;;;;;;;4.15;1.88;;;;;;;-144.31;100.00;58022.63;5051176;28;20279;-59
2023/01/13 03:56:50;;;;;;;3.20;1.40;;;;;;;-144.31;100.00;58022.63;5058347;28;20036;-59
2023/01/13 03:59:20;;;;;;;3.97;1.25;;;;;;;-144.31;100.00;58022.63;5056448;28;20036;-59
2023/01/13 04:01:51;;;;;;;3.17;1.60;;;;;;;-144.31;100.00;58022.63;5054059;28;20037;-59
2023/01/13 04:04:28;;;;;;;3.95;1.45;;;;;;;-144.31;100.00;58022.63;5052300;28;20075;-60
2023/01/13 04:07:10;;;;;;;1.92;1.05;;;;;;;-144.31;100.00;58022.63;5052965;28;20041;-60
2023/01/13 04:09:56;;;;;;;3.08;1.23;;;;;;;-144.31;100.00;58022.63;5050681;28;20557;-60
2023/01/13 04:12:24;;;;;;;1.15;1.00;;;;;;;-144.31;100.00;58022.63;5054331;28;20470;-61
2023/01/13 04:14:51;;;;;;;1.50;1.30;;;;;;;-144.31;100.00;58022.63;5052488;28;20479;-59
2023/01/13 04:17:17;;;;;;;3.55;1.40;;;;;;;-144.31;100.00;58022.63;5054319;28;20059;-59
2023/01/13 04:19:43;;;;;;;3.42;1.30;;;;;;;-144.31;100.00;58022.63;5053184;28;20055;-61
2023/01/13 04:22:08;;;;;;;3.67;1.30;;;;;;;-144.31;100.00;58022.63;5053975;28;20469;-59
2023/01/13 04:24:35;;;;;;;3.17;1.30;;;;;;;-144.31;100.00;58022.63;5050595;28;20656;-60
2023/01/13 04:27:02;;;;;;;3.72;1.50;;;;;;;-144.31;100.00;58022.63;5054314;28;20032;-59
2023/01/13 04:29:27;;;;;;;2.95;1.20;;;;;;;-144.31;100.00;58022.63;5054617;28;20045;-60
2023/01/13 04:31:53;;;;;;;1.67;1.10;;;;;;;-144.31;100.00;58022.63;5056874;28;20575;-59
2023/01/13 04:34:18;;;;;;;3.45;1.05;;;;;;;-144.31;100.00;58022.63;5056224;28;20421;-59
2023/01/13 04:36:44;;;;;;;3.25;1.50;;;;;;;-144.31;100.00;58022.63;5054432;28;20102;-60
2023/01/13 04:39:09;;;;;;;1.63;1.10;;;;;;;-144.31;100.00;58022.63;5056110;28;20508;-59
2023/01/13 04:44:18;;;;;;;1.48;1.05;;;;;;;-144.31;100.00;58022.63;5055068;28;20029;-60
2023/01/13 04:46:44;;;;;;;2.15;1.30;;;;;;;-144.31;100.00;58022.63;5054894;28;20083;-60
2023/01/13 04:49:09;;;;;;;3.65;1.27;;;;;;;-144.31;100.00;58022.63;5053190;28;20055;-61
2023/01/13 04:51:35;;;;;;;4.35;1.40;;;;;;;-144.31;100.00;58022.63;5055113;28;20041;-61
2023/01/13 04:54:00;;;;;;;2.28;1.50;;;;;;;-144.31;100.00;58022.63;5055220;28;20033;-60
2023/01/13 04:56:26;;;;;;;3.80;1.48;;;;;;;-144.31;100.00;58022.63;5054004;28;20246;-61
2023/01/13 04:58:51;;;;;;;3.67;1.58;;;;;;;-144.31;100.00;58022.63;5052981;28;20033;-60
2023/01/13 05:01:16;;;;;;;3.45;1.17;;;;;;;-144.31;100.00;58022.63;5054623;28;20036;-60
2023/01/13 05:03:42;;;;;;;3.78;1.50;;;;;;;-144.31;100.00;58022.63;5053532;28;20029;-61
2023/01/13 05:06:07;;;;;;;2.17;1.30;;;;;;;-144.31;100.00;58022.63;5057197;28;20639;-61
2023/01/13 05:08:33;;;;;;;1.75;1.30;;;;;;;-144.31;100.00;58022.63;5060586;28;20037;-61
2023/01/13 05:16:58;;;;;;;4.28;1.40;;;;;;;-144.31;100.00;58022.63;5053540;28;20099;-60
2023/01/13 05:19:14;;;;;;;3.00;1.25;;;;;;;-144.31;100.00;58022.63;5056840;28;20090;-61
2023/01/13 05:27:07;;;;;;;3.15;1.25;;;;;;;-144.31;100.00;58022.63;5054428;28;20041;-61
2023/01/13 05:29:33;;;;;;;1.73;1.20;;;;;;;-144.31;100.00;58022.63;5053417;28;20045;-60
2023/01/13 05:32:01;;;;;;;4.32;1.30;;;;;;;-144.31;100.00;58022.63;5053952;28;20176;-61
2023/01/13 05:34:26;;;;;;;1.70;1.10;;;;;;;-144.31;100.00;58022.63;5053102;28;20496;-61
2023/01/13 05:36:52;;;;;;;2.80;1.35;;;;;;;-144.31;100.00;58022.63;5055650;28;20111;-59
2023/01/13 05:39:17;;;;;;;1.83;1.17;;;;;;;-144.31;100.00;58022.63;5056896;28;20037;-60
2023/01/13 05:44:27;;;;;;;2.38;1.20;;;;;;;-144.31;100.00;58022.63;5062661;28;20040;-60
2023/01/13 05:46:52;;;;;;;1.92;1.20;;;;;;;-144.31;100.00;58022.63;5051472;28;20052;-59
2023/01/13 05:49:18;;;;;;;1.90;1.20;;;;;;;-144.31;100.00;58022.63;5053191;28;20115;-59
2023/01/13 05:51:43;;;;;;;1.52;1.05;;;;;;;-144.31;100.00;58022.63;5050804;28;20043;-60
2023/01/13 05:54:13;;;;;;;3.28;1.23;;;;;;;-144.31;100.00;58022.63;5054815;28;20041;-59
2023/01/13 05:56:39;;;;;;;1.88;1.20;;;;;;;-144.31;100.00;58022.63;5057212;28;20040;-59
2023/01/13 05:59:04;;;;;;;1.45;1.00;;;;;;;-144.31;100.00;58022.63;5057346;28;20041;-60
2023/01/13 06:01:30;;;;;;;3.63;1.30;;;;;;;-144.31;100.00;58022.63;5054448;28;20119;-59
2023/01/13 06:03:55;;;;;;;1.63;1.10;;;;;;;-144.31;100.00;58022.63;5051431;28;20033;-59
2023/01/13 06:06:21;;;;;;;2.88;1.23;;;;;;;-144.31;100.00;58022.63;5052992;28;20032;-60
2023/01/13 06:08:46;;;;;;;3.53;1.30;;;;;;;-144.31;100.00;58022.63;5055446;28;20048;-60
2023/01/13 06:11:11;;;;;;;2.72;1.20;;;;;;;-144.31;100.00;58022.63;5052364;28;20063;-60
2023/01/13 06:13:37;;;;;;;2.78;1.15;;;;;;;-144.31;100.00;58022.63;5050546;28;20047;-60
2023/01/13 06:16:02;;;;;;;2.42;1.20;;;;;;;-144.31;100.00;58022.63;5052817;28;20029;-60
2023/01/13 06:18:28;;;;;;;2.35;1.25;;;;;;;-144.31;100.00;58022.63;5053506;28;20033;-59
2023/01/13 06:20:54;;;;;;;1.63;1.10;;;;;;;-144.31;100.00;58022.63;5053278;28;20033;-59
2023/01/13 06:23:19;;;;;;;1.77;1.30;;;;;;;-144.31;100.00;58022.63;5052896;28;20040;-60
2023/01/13 06:25:45;;;;;;;1.77;1.10;;;;;;;-144.31;100.00;58022.63;5052436;28;20045;-60
2023/01/13 06:28:10;;;;;;;1.77;1.10;;;;;;;-144.31;100.00;58022.63;5054410;28;20068;-60
2023/01/13 06:30:41;;;;;;;1.17;1.00;;;;;;;-144.31;100.00;58022.63;5051292;28;20053;-60
2023/01/13 06:33:12;;;;;;;1.33;1.20;;;;;;;-144.31;100.00;58022.63;5051217;28;20090;-60
2023/01/13 06:35:40;;;;;;;0.90;0.90;;;;;;;-144.31;100.00;58022.63;5052924;28;20382;-59
2023/01/13 06:38:09;;;;;;;2.20;1.10;;;;;;;-144.31;100.00;58022.63;5050505;28;20045;-60
2023/01/13 06:40:35;;;;;;;2.15;1.10;;;;;;;-144.31;100.00;58022.63;5051396;28;20036;-60
2023/01/13 06:43:14;;;;;;;1.80;1.20;;;;;;;-144.31;100.00;58022.63;5051509;28;20037;-60
2023/01/13 06:45:44;;;;;;;1.92;1.10;;;;;;;-144.31;100.00;58022.63;5046947;28;20036;-60
2023/01/13 06:48:09;;;;;;;1.33;1.08;;;;;;;-144.31;100.00;58022.63;5056819;28;20041;-60
2023/01/13 06:50:36;;;;;;;1.95;1.08;;;;;;;-144.31;100.00;58022.63;5054608;28;20044;-60
2023/01/13 06:53:02;;;;;;;2.05;1.30;;;;;;;-144.31;100.00;58022.63;5051778;28;20044;-60
2023/01/13 06:55:27;;;;;;;1.42;0.95;;;;;;;-144.31;100.00;58022.63;5053524;28;21741;-60
2023/01/13 06:57:54;;;;;;;3.53;1.20;;;;;;;-144.31;100.00;58022.63;5056842;28;20032;-60
2023/01/13 07:00:20;;;;;;;;;;;;;;;-144.31;100.00;58022.63;5044538;28;20044;-60
2023/01/13 07:02:46;;;;;;;2.13;1.38;;;;;;;-144.31;100.00;58022.63;5054915;28;19923;-60
2023/01/13 07:05:12;;;;;;;3.42;1.10;;;;;;;-144.31;100.00;58022.63;5053555;28;20446;-60
2023/01/13 07:07:38;;;;;;;1.98;1.10;;;;;;;-144.31;100.00;58022.63;5050352;28;20092;-60
2023/01/13 07:10:04;;;;;;;1.25;1.00;;;;;;;-144.31;100.00;58022.63;5053634;28;20091;-60
2023/01/13 07:15:17;;;;;;;4.63;1.10;;;;;;;-144.31;100.00;58022.63;5053130;28;20059;-60
2023/01/13 07:15:18;;;;;;;1.45;1.10;;;;;;;-144.31;100.00;58022.63;5070729;28;20502;-60
2023/01/13 07:17:43;;;;;;;2.30;1.02;;;;;;;-144.31;100.00;58022.63;5054914;28;20139;-60
2023/01/13 07:20:09;;;;;;;2.78;0.93;;;;;;;-144.31;100.00;58022.63;5052823;28;20033;-60
2023/01/13 07:22:34;;;;;;;1.73;1.00;;;;;;;-144.31;100.00;58022.63;5052012;28;20094;-60
2023/01/13 07:25:03;;;;;;;1.38;1.10;;;;;;;-144.31;100.00;58022.63;5051584;28;20045;-60
2023/01/13 07:27:28;;;;;;;2.45;1.42;;;;;;;-144.31;100.00;58022.63;5049250;28;20120;-60
2023/01/13 07:29:53;;;;;;;1.77;1.15;;;;;;;-144.31;100.00;58022.63;5050168;28;20051;-60
2023/01/13 07:32:19;;;;;;;2.70;1.05;;;;;;;-144.31;100.00;58022.63;5051592;28;20119;-60
2023/01/13 07:34:44;;;;;;;1.52;1.10;;;;;;;-144.31;100.00;58022.63;5050212;28;20158;-60
2023/01/13 07:37:10;;;;;;;2.05;1.25;;;;;;;-144.31;100.00;58022.63;5048755;28;20039;-60
2023/01/13 07:39:35;;;;;;;1.52;1.13;;;;;;;-144.31;100.00;58022.63;5050263;28;20451;-60
2023/01/13 07:44:44;;;;;;;0.93;0.90;;;;;;;-144.31;100.00;58022.63;5052940;28;20090;-61
2023/01/13 07:47:10;;;;;;;1.83;1.10;;;;;;;-144.31;100.00;58022.63;5055460;28;20103;-60
2023/01/13 07:49:36;;;;;;;1.48;1.23;;;;;;;-144.31;100.00;58022.63;5050874;28;20067;-60
2023/01/13 07:52:02;;;;;;;1.75;1.00;;;;;;;-144.31;100.00;58022.63;5048231;28;20338;-60
2023/01/13 07:54:27;;;;;;;0.90;0.90;;;;;;;-144.31;100.00;58022.63;5060164;28;20044;-61
2023/01/13 07:56:55;;;;;;;0.90;0.90;;;;;;;-144.31;100.00;58022.63;5054965;28;20481;-61
2023/01/13 07:59:21;;;;;;;1.30;1.13;;;;;;;-144.31;100.00;58022.63;5054170;28;20074;-60
2023/01/13 08:01:46;;;;;;;3.95;1.35;;;;;;;-144.31;100.00;58022.63;5055170;28;20037;-60
2023/01/13 08:04:12;;;;;;;1.98;1.00;;;;;;;-144.31;100.00;58022.63;5051824;28;20123;-60
2023/01/13 08:06:41;;;;;;;1.10;0.95;;;;;;;-144.31;100.00;58022.63;5054730;28;20439;-60
2023/01/13 08:09:07;;;;;;;2.58;1.15;;;;;;;-144.31;100.00;58022.63;5056033;28;20059;-60
2023/01/13 08:11:34;;;;;;;3.87;1.20;;;;;;;-144.31;100.00;58022.63;5053022;28;20044;-60
2023/01/13 08:13:59;;;;;;;1.58;1.10;;;;;;;-144.31;100.00;58022.63;5055527;28;20079;-60
2023/01/13 08:16:24;;;;;;;2.53;1.20;;;;;;;-144.31;100.00;58022.63;5054084;28;20072;-61
2023/01/13 08:18:50;;;;;;;2.47;1.20;;;;;;;-144.31;100.00;58022.63;5055619;28;20049;-59
2023/01/13 08:21:16;;;;;;;1.33;1.23;;;;;;;-144.31;100.00;58022.63;5057098;28;20055;-60
2023/01/13 08:23:43;;;;;;;2.72;1.30;;;;;;;-144.31;100.00;58022.63;5054218;28;20055;-60
2023/01/13 08:26:11;;;;;;;2.22;1.40;;;;;;;-144.31;100.00;58022.63;5054160;28;20890;-60
2023/01/13 08:28:39;;;;;;;2.03;1.17;;;;;;;-144.31;100.00;58022.63;5053120;28;20746;-59
2023/01/13 08:31:10;;;;;;;2.50;1.65;;;;;;;-144.31;100.00;58022.63;5051630;28;20048;-59
2023/01/13 08:33:36;;;;;;;1.85;1.30;;;;;;;-144.31;100.00;58022.63;5053979;28;20052;-60
2023/01/13 08:36:07;;;;;;;2.40;1.60;;;;;;;-144.31;100.00;58022.63;5052864;28;20032;-61
2023/01/13 08:38:34;;;;;;;2.17;1.48;;;;;;;-144.31;100.00;58022.63;5051398;28;20040;-60
2023/01/13 08:41:00;;;;;;;4.93;1.60;;;;;;;-144.31;100.00;58022.63;5054023;28;20048;-60
2023/01/13 08:43:27;;;;;;;2.67;1.30;;;;;;;-144.31;100.00;58022.63;5056083;28;20041;-60
2023/01/13 08:45:57;;;;;;;4.10;2.20;;;;;;;-144.31;100.00;58022.63;5052739;28;20064;-58
2023/01/13 08:48:23;;;;;;;4.10;1.90;;;;;;;-144.31;100.00;58022.63;5052722;28;20041;-59
2023/01/13 08:50:48;;;;;;;2.88;1.70;;;;;;;-144.31;100.00;58022.63;5056880;28;20071;-57
2023/01/13 08:53:14;;;;;;;8.05;1.70;;;;;;;-144.31;100.00;58022.63;5056024;28;20592;-55
2023/01/13 08:55:39;;;;;;;2.55;1.42;;;;;;;-144.31;100.00;58022.63;5052712;28;20394;-57
2023/01/13 08:58:05;;;;;;;1.20;1.17;;;;;;;-144.31;100.00;58022.63;5050435;28;20040;-57
2023/01/13 09:00:30;;;;;;;2.47;1.45;;;;;;;-144.31;100.00;58022.63;5052150;28;20040;-55
2023/01/13 09:02:57;;;;;;;1.42;1.10;;;;;;;-144.31;100.00;58022.63;5051444;28;20114;-56
2023/01/13 09:05:23;;;;;;;2.85;1.40;;;;;;;-144.31;100.00;58022.63;5049846;28;20091;-56
2023/01/13 09:07:48;;;;;;;3.10;1.48;;;;;;;-144.31;100.00;58022.63;5052741;28;20102;-53
2023/01/13 09:10:14;;;;;;;3.42;1.27;;;;;;;-144.31;100.00;58022.63;5052831;28;20133;-56
2023/01/13 09:15:23;;;;;;;1.30;1.20;;;;;;;-144.31;100.00;58022.63;5052136;28;20480;-58
2023/01/13 09:17:49;;;;;;;1.80;1.23;;;;;;;-144.31;100.00;58022.63;5051876;28;20102;-59
2023/01/13 09:20:14;;;;;;;1.30;1.10;;;;;;;-144.31;100.00;58022.63;5050247;28;20053;-60
2023/01/13 09:22:40;;;;;;;2.47;1.33;;;;;;;-144.31;100.00;58022.63;5056048;28;20041;-58
2023/01/13 09:25:06;;;;;;;4.43;1.48;;;;;;;-144.31;100.00;58022.63;5053578;28;20127;-61
2023/01/13 09:27:31;;;;;;;3.17;1.33;;;;;;;-144.31;100.00;58022.63;5051833;28;20405;-59
2023/01/13 09:29:57;;;;;;;2.10;1.55;;;;;;;-144.31;100.00;58022.63;5053201;28;20517;-59
2023/01/13 09:32:22;;;;;;;2.47;1.10;;;;;;;-144.31;100.00;58022.63;5052651;28;20407;-59
2023/01/13 09:35:00;;;;;;;2.63;1.23;;;;;;;-144.31;100.00;58022.63;5052006;28;20044;-60
2023/01/13 09:37:34;;;;;;;3.33;1.40;;;;;;;-144.31;100.00;58022.63;5050459;28;20112;-61
2023/01/13 09:40:01;;;;;;;2.65;1.40;;;;;;;-144.31;100.00;58022.63;5050582;28;20037;-59
2023/01/13 09:45:48;;;;;;;3.65;1.60;;;;;;;-144.31;100.00;58022.63;5052696;28;20395;-60
2023/01/13 09:48:21;;;;;;;3.17;1.48;;;;;;;-144.31;100.00;58022.63;5051101;28;20049;-60
2023/01/13 09:50:58;;;;;;;2.20;1.55;;;;;;;-144.31;100.00;58022.63;5050394;28;20040;-60
2023/01/13 09:53:31;;;;;;;1.92;1.50;;;;;;;-144.31;100.00;58022.63;5061060;28;20587;-60
2023/01/13 09:55:57;;;;;;;3.67;1.90;;;;;;;-144.31;100.00;58022.63;5065028;28;20037;-60
2023/01/13 09:58:23;;;;;;;5.20;1.80;;;;;;;-144.31;100.00;58022.63;5050137;28;20650;-59
2023/01/13 10:01:21;;;;;;;6.07;1.88;;;;;;;-144.31;100.00;58022.63;5043440;28;20060;-60
2023/01/13 10:03:48;;;;;;;5.97;1.95;;;;;;;-144.31;100.00;58022.63;5023102;28;20110;-60
2023/01/13 10:06:37;;;;;;;5.32;2.65;;;;;;;-144.31;100.00;58022.63;5052224;28;20047;-59
2023/01/13 10:09:04;;;;;;;2.83;1.63;;;;;;;-144.31;100.00;58022.63;5054799;28;20138;-60
2023/01/13 10:14:29;;;;;;;2.88;1.40;;;;;;;-144.31;100.00;58022.63;5050436;28;20099;-59
2023/01/13 10:17:27;;;;;;;3.45;1.42;;;;;;;-144.31;100.00;58022.63;5048669;28;20800;-59
2023/01/13 10:20:17;;;;;;;3.38;1.50;;;;;;;-144.31;100.00;58022.63;5047992;28;20413;-59
2023/01/13 10:23:03;;;;;;;3.03;1.40;;;;;;;-144.31;100.00;58022.63;5052972;28;20093;-60
2023/01/13 10:25:32;;;;;;;6.57;1.60;;;;;;;-144.31;100.00;58022.63;5056286;28;20041;-60
2023/01/13 10:28:07;;;;;;;4.15;1.60;;;;;;;-144.31;100.00;58022.63;5048015;28;20044;-59
2023/01/13 10:30:35;;;;;;;3.35;1.52;;;;;;;-144.31;100.00;58022.63;5051625;28;20072;-60
2023/01/13 10:33:10;;;;;;;5.93;1.90;;;;;;;-144.31;100.00;58022.63;5050015;28;20044;-59
2023/01/13 10:35:56;;;;;;;5.68;2.10;;;;;;;-144.31;100.00;58022.63;5047660;28;20098;-59
2023/01/13 10:38:45;;;;;;;5.25;1.70;;;;;;;-144.31;100.00;58022.63;5049654;28;20037;-59
2023/01/13 10:41:11;;;;;;;4.30;1.50;;;;;;;-144.31;100.00;58022.63;5047660;28;20844;-59
2023/01/13 10:43:36;;;;;;;7.22;1.50;;;;;;;-144.31;100.00;58022.63;5051080;28;20039;-59
2023/01/13 10:46:10;;;;;;;4.15;1.50;;;;;;;-144.31;100.00;58022.63;5051648;28;21023;-59
2023/01/13 10:48:36;;;;;;;4.63;1.70;;;;;;;-144.31;100.00;58022.63;5052165;28;20037;-59
2023/01/13 10:51:10;;;;;;;3.33;1.58;;;;;;;-144.31;100.00;58022.63;5053430;28;20044;-59
2023/01/13 10:53:50;;;;;;;4.38;1.60;;;;;;;-144.31;100.00;58022.63;5051053;28;20049;-59
2023/01/13 10:56:17;;;;;;;6.13;1.60;;;;;;;-144.31;100.00;58022.63;5051074;28;20116;-59
2023/01/13 10:58:42;;;;;;;;;;;;;;;-144.31;100.00;58022.63;5050801;28;20140;-58
2023/01/13 11:01:24;;;;;;;5.35;1.70;;;;;;;-144.31;100.00;58022.63;5048842;28;20013;-57
2023/01/13 11:03:51;;;;;;;4.20;1.52;;;;;;;-144.31;100.00;58022.63;5051048;28;20054;-60
2023/01/13 11:06:36;;;;;;;6.55;1.83;;;;;;;-144.31;100.00;58022.63;5049544;28;20142;-59
2023/01/13 11:09:02;;;;;;;6.32;1.95;;;;;;;-144.31;100.00;58022.63;5048661;28;20037;-58
2023/01/13 11:11:39;;;;;;;6.00;1.98;;;;;;;-144.31;100.00;58022.63;5049525;28;20055;-59
2023/01/13 11:14:42;;;;;;;5.32;1.80;;;;;;;-144.31;100.00;58022.63;5053160;28;20143;-59
2023/01/13 11:17:28;;;;;;;6.15;1.92;;;;;;;-144.31;100.00;58022.63;5045728;28;20080;-59
2023/01/13 11:20:31;;;;;;;8.90;1.50;;;;;;;-144.31;100.00;58022.63;5047484;28;20626;-58
2023/01/13 11:23:00;;;;;;;7.68;1.98;;;;;;;-144.31;100.00;58022.63;5010757;28;20076;-59
2023/01/13 11:25:31;;;;;;;5.97;2.22;;;;;;;-144.31;100.00;58022.63;5049886;28;20051;-58
2023/01/13 11:28:04;;;;;;;4.90;2.10;;;;;;;-144.31;100.00;58022.63;5051967;28;20496;-59
2023/01/13 11:30:41;;;;;;;6.75;2.00;;;;;;;-144.31;100.00;58022.63;5050727;28;20059;-58
2023/01/13 11:33:10;;;;;;;;;;;;;;;-144.31;100.00;58022.63;5060172;28;20757;-59
2023/01/13 11:36:20;;;;;;;3.42;1.40;;;;;;;-144.31;100.00;58022.63;5054388;28;19923;-59
2023/01/13 11:38:53;;;;;;;4.18;1.80;;;;;;;-144.31;100.00;58022.63;5020570;28;20505;-58
2023/01/13 11:41:37;;;;;;;5.88;2.22;;;;;;;-144.31;100.00;58022.63;5052013;28;20041;-59
2023/01/13 11:44:17;;;;;;;3.38;1.38;;;;;;;-144.31;100.00;58022.63;5052398;28;20059;-58
2023/01/13 11:46:43;;;;;;;4.65;1.40;;;;;;;-144.31;100.00;58022.63;5053055;28;20858;-57
2023/01/13 11:49:30;;;;;;;3.95;1.77;;;;;;;-144.31;100.00;58022.63;5051106;28;20052;-58
2023/01/13 11:51:58;;;;;;;;;;;;;;;-144.31;100.00;58022.63;5054861;28;20048;-59
2023/01/13 11:54:41;;;;;;;4.20;1.80;;;;;;;-144.31;100.00;58022.63;5055712;28;19921;-58
2023/01/13 11:57:33;;;;;;;3.05;1.35;;;;;;;-144.31;100.00;58022.63;5053056;28;20058;-58
2023/01/13 12:00:17;;;;;;;3.30;1.50;;;;;;;-144.31;100.00;58022.63;5050920;28;20063;-59
2023/01/13 12:02:51;;;;;;;10.93;2.45;;;;;;;-144.31;100.00;58022.63;5053960;28;20132;-59
2023/01/13 12:05:29;;;;;;;7.25;1.90;;;;;;;-144.31;100.00;58022.63;5055696;28;20099;-58
2023/01/13 12:08:19;;;;;;;4.38;1.75;;;;;;;-144.31;100.00;58022.63;5061544;28;20041;-57
2023/01/13 12:11:03;;;;;;;7.28;1.90;;;;;;;-144.31;100.00;58022.63;5050782;28;20041;-58
2023/01/13 12:14:26;;;;;;;10.95;2.67;;;;;;;-144.31;100.00;58022.63;5053963;28;20064;-59
2023/01/13 12:16:52;;;;;;;4.97;1.90;;;;;;;-144.31;100.00;58022.63;4982834;28;20037;-59
2023/01/13 12:19:29;;;;;;;7.55;2.15;;;;;;;-144.31;100.00;58022.63;4983179;28;20038;-58